Time;durP1;ratioP1;P1;durP2;ratioP2;P2;SDS_P1;SDS_P2;PMS_P1;PMS_P2;Temp;Humidity;BMP_temperature;BMP_pressure;BME280_temperature;BME280_humidity;BME280_pressure;Samples;Min_cycle;Max_cycle;Signal;HPM_P1;HPM_P2
2022/09/07 00:02:19;;;;;;;2.43;2.23;;;;;;;24.76;62.59;97352.19;5036726;28;20623;-22
2022/09/07 00:04:45;;;;;;;2.50;2.30;;;;;;;24.76;62.85;97344.50;5034112;28;20332;-22
2022/09/07 00:07:12;;;;;;;2.60;2.40;;;;;;;24.76;63.28;97350.50;5034505;28;20236;-22
2022/09/07 00:09:39;;;;;;;3.23;2.10;;;;;;;24.76;62.74;97345.38;5036717;28;20236;-22
2022/09/07 00:12:05;;;;;;;2.50;2.30;;;;;;;24.76;63.39;97345.38;5036044;28;20237;-22
2022/09/07 00:14:33;;;;;;;3.07;2.20;;;;;;;24.75;62.96;97346.19;5034820;28;20316;-22
2022/09/07 00:16:59;;;;;;;2.43;2.23;;;;;;;24.75;62.77;97348.75;5037284;28;20312;-22
2022/09/07 00:19:26;;;;;;;2.50;2.30;;;;;;;24.75;63.08;97345.34;5034451;28;20736;-22
2022/09/07 00:21:52;;;;;;;2.50;2.30;;;;;;;24.75;63.51;97346.19;5035211;28;20197;-22
2022/09/07 00:24:19;;;;;;;2.43;1.90;;;;;;;24.76;63.17;97347.06;5034842;28;20239;-22
2022/09/07 00:26:46;;;;;;;2.13;2.03;;;;;;;24.76;62.94;97350.50;5091241;22;20247;-32
2022/09/07 00:29:12;;;;;;;2.53;2.30;;;;;;;24.76;63.13;97352.19;5085498;28;20561;-32
2022/09/07 00:31:39;;;;;;;2.10;1.90;;;;;;;24.74;63.04;97347.03;5085315;28;20628;-32
2022/09/07 00:34:06;;;;;;;3.00;2.27;;;;;;;24.76;63.33;97354.78;5084075;28;20204;-32
2022/09/07 00:36:32;;;;;;;2.60;2.30;;;;;;;24.68;63.15;97333.22;5079972;28;20236;-32
2022/09/07 00:38:59;;;;;;;2.20;2.00;;;;;;;24.75;63.28;97330.75;5080711;28;20235;-33
2022/09/07 00:41:25;;;;;;;3.17;2.20;;;;;;;24.69;63.02;97322.13;5082011;28;20702;-32
2022/09/07 00:43:54;;;;;;;2.53;2.20;;;;;;;24.75;63.08;97325.63;5080687;28;20430;-32
2022/09/07 00:46:25;;;;;;;2.10;2.00;;;;;;;24.67;63.36;97316.09;5076264;28;20603;-32
2022/09/07 01:55:13;;;;;;;3.00;2.10;;;;;;;24.70;63.34;97347.84;5091044;28;20214;-32
2022/09/07 01:57:46;;;;;;;2.37;2.17;;;;;;;24.71;63.45;97328.13;5089926;28;20203;-32
2022/09/07 02:00:17;;;;;;;2.30;2.10;;;;;;;24.71;63.15;97335.84;5090862;28;20219;-32
2022/09/07 02:02:55;;;;;;;2.10;2.00;;;;;;;24.71;63.50;97330.69;5093983;28;20674;-32
2022/09/07 02:05:34;;;;;;;2.17;1.97;;;;;;;24.70;63.14;97335.00;5072239;28;20747;-32
2022/09/07 02:08:12;;;;;;;2.27;2.07;;;;;;;24.64;63.55;97329.75;5076062;28;20199;-32
2022/09/07 02:10:47;;;;;;;2.30;2.10;;;;;;;24.65;63.27;97334.06;5091253;28;20604;-32
2022/09/07 02:13:21;;;;;;;2.20;2.00;;;;;;;24.71;63.56;97352.13;5092434;28;20752;-32
2022/09/07 02:16:08;;;;;;;2.30;2.13;;;;;;;24.64;63.11;97345.16;5077107;28;20223;-32
2022/09/07 02:22:17;;;;;;;1.90;1.80;;;;;;;24.71;63.36;97352.13;5092695;28;20249;-32
2022/09/07 02:25:21;;;;;;;2.40;2.20;;;;;;;24.72;63.28;97355.59;5093215;28;20303;-32
2022/09/07 02:28:16;;;;;;;2.97;2.00;;;;;;;24.66;63.46;97347.78;5088616;28;20215;-32
2022/09/07 02:30:43;;;;;;;2.10;2.00;;;;;;;24.72;62.89;97363.28;5066533;28;20229;-32
2022/09/07 02:33:09;;;;;;;2.23;2.00;;;;;;;24.72;63.03;97369.28;5073572;28;20195;-32
2022/09/07 02:35:36;;;;;;;2.20;2.00;;;;;;;24.66;63.37;97348.63;5088682;28;20219;-32
2022/09/07 02:38:04;;;;;;;1.90;1.80;;;;;;;24.71;63.36;97352.13;5088857;28;20199;-32
2022/09/07 02:40:31;;;;;;;2.17;2.03;;;;;;;24.71;63.51;97354.72;5088081;28;20224;-32
2022/09/07 02:42:58;;;;;;;2.30;2.10;;;;;;;24.71;63.47;97343.56;5092805;28;20331;-32
2022/09/07 02:45:25;;;;;;;2.33;2.20;;;;;;;24.72;63.13;97348.72;5091462;28;20219;-32
2022/09/07 02:48:20;;;;;;;2.10;2.00;;;;;;;24.71;63.27;97349.56;5069591;28;20313;-32
2022/09/07 02:51:27;;;;;;;2.27;2.13;;;;;;;24.72;63.08;97353.84;5079486;28;20219;-32
2022/09/07 02:54:35;;;;;;;2.77;2.23;;;;;;;24.71;63.14;97339.28;5092247;28;20229;-32
2022/09/07 02:57:21;;;;;;;2.30;2.07;;;;;;;24.72;63.12;97338.44;5070190;28;20216;-32
2022/09/07 03:00:19;;;;;;;2.20;2.00;;;;;;;24.71;63.58;97346.13;5091120;28;20199;-32
2022/09/07 03:03:23;;;;;;;2.00;1.90;;;;;;;24.72;63.37;97333.28;5085175;28;20247;-32
2022/09/07 03:12:52;;;;;;;2.30;2.10;;;;;;;24.71;63.48;97321.28;5090566;28;20204;-32
2022/09/07 03:15:37;;;;;;;2.10;1.97;;;;;;;24.71;63.24;97317.84;5093729;28;20603;-32
2022/09/07 03:18:04;;;;;;;2.30;2.10;;;;;;;24.71;63.05;97323.88;5091609;28;20234;-32
2022/09/07 03:20:30;;;;;;;2.23;2.03;;;;;;;24.69;62.94;97322.13;5090721;28;20245;-32
2022/09/07 03:22:57;;;;;;;2.00;1.90;;;;;;;24.71;63.48;97329.00;5089414;28;20611;-32
2022/09/07 03:25:24;;;;;;;2.33;2.23;;;;;;;24.71;63.53;97326.44;5092599;28;20227;-32
2022/09/07 03:27:50;;;;;;;2.47;1.90;;;;;;;24.71;63.35;97331.56;5090515;28;20225;-32
2022/09/07 03:30:17;;;;;;;2.20;1.97;;;;;;;24.71;62.93;97329.00;5088025;28;20253;-32
2022/09/07 03:32:44;;;;;;;2.20;2.10;;;;;;;24.72;63.03;97335.03;5087635;28;20615;-32
2022/09/07 03:35:11;;;;;;;2.03;1.93;;;;;;;24.71;63.28;97349.56;5085805;28;20224;-32
2022/09/07 03:37:39;;;;;;;1.97;1.87;;;;;;;24.69;62.96;97340.97;5069052;28;20203;-32
2022/09/07 03:40:07;;;;;;;2.33;2.13;;;;;;;24.71;62.98;97347.00;5086809;28;20203;-32
2022/09/07 03:42:35;;;;;;;2.20;2.10;;;;;;;24.72;63.04;97337.59;5082450;28;20226;-32
2022/09/07 03:45:01;;;;;;;2.10;2.00;;;;;;;24.72;63.38;97337.59;5090676;28;20220;-32
2022/09/07 03:47:28;;;;;;;2.23;1.93;;;;;;;24.72;62.99;97332.44;5084385;28;20264;-33
2022/09/07 03:49:54;;;;;;;2.30;2.10;;;;;;;24.73;63.26;97337.63;5088285;28;20200;-32
2022/09/07 03:52:21;;;;;;;2.30;2.20;;;;;;;24.72;63.28;97330.72;5084173;28;20204;-32
2022/09/07 03:54:48;;;;;;;2.10;2.00;;;;;;;24.73;63.54;97323.88;5089729;28;20204;-32
2022/09/07 03:57:14;;;;;;;2.00;1.90;;;;;;;24.72;63.27;97328.16;5087896;28;20551;-32
2022/09/07 03:59:41;;;;;;;2.33;2.13;;;;;;;24.72;63.11;97332.44;5089823;28;20657;-32
2022/09/07 04:02:08;;;;;;;2.00;1.90;;;;;;;24.72;63.39;97327.31;5089061;28;20227;-32
2022/09/07 04:04:34;;;;;;;2.27;1.90;;;;;;;24.73;63.45;97318.75;5087422;28;20245;-32
2022/09/07 04:07:01;;;;;;;2.23;2.03;;;;;;;24.72;63.52;97314.47;5089375;28;20223;-32
2022/09/07 04:09:28;;;;;;;2.20;2.10;;;;;;;24.72;63.03;97323.00;5082774;28;20222;-32
2022/09/07 04:11:54;;;;;;;2.27;2.10;;;;;;;24.68;63.17;97320.38;5081057;28;20237;-32
2022/09/07 04:14:21;;;;;;;2.30;2.10;;;;;;;24.72;63.08;97330.72;5087857;28;20715;-32
2022/09/07 04:16:48;;;;;;;2.00;1.90;;;;;;;24.67;62.94;97318.66;5085132;28;20272;-32
2022/09/07 04:19:15;;;;;;;2.03;1.93;;;;;;;24.72;63.36;97324.75;5089865;28;20291;-32
2022/09/07 04:21:45;;;;;;;2.30;2.10;;;;;;;24.73;63.28;97323.88;5084902;28;20220;-32
2022/09/07 04:24:15;;;;;;;1.93;1.83;;;;;;;24.69;62.90;97322.97;5089474;28;20273;-32
2022/09/07 04:26:42;;;;;;;2.50;2.00;;;;;;;24.11;63.05;97224.50;5093587;28;20223;-32
2022/09/07 04:29:09;;;;;;;2.30;2.10;;;;;;;24.71;63.23;97329.00;5089391;28;20662;-32
2022/09/07 04:31:36;;;;;;;2.20;2.00;;;;;;;24.72;63.49;97343.56;5088550;28;20257;-32
2022/09/07 04:34:03;;;;;;;2.57;2.17;;;;;;;24.73;62.92;97331.59;5089000;28;20204;-32
2022/09/07 04:36:30;;;;;;;2.00;1.90;;;;;;;24.73;63.30;97336.75;5091798;28;20274;-32
2022/09/07 04:38:58;;;;;;;2.30;2.10;;;;;;;24.70;63.22;97329.88;5094978;28;20196;-32
2022/09/07 04:41:26;;;;;;;2.17;2.07;;;;;;;24.73;63.05;97326.47;5092498;28;20211;-32
2022/09/07 04:43:56;;;;;;;2.13;1.93;;;;;;;24.71;63.31;97320.41;5080473;28;20199;-32
2022/09/07 04:46:24;;;;;;;2.20;2.00;;;;;;;24.56;63.09;97297.06;5085113;28;20284;-32
2022/09/07 04:48:56;;;;;;;2.20;2.00;;;;;;;24.71;63.02;97323.00;5086397;28;20207;-32
2022/09/07 04:51:24;;;;;;;2.23;2.03;;;;;;;24.74;63.30;97338.47;5087948;28;20196;-32
2022/09/07 04:53:51;;;;;;;2.23;2.03;;;;;;;24.74;63.19;97335.88;5088004;28;20675;-32
2022/09/07 04:56:18;;;;;;;2.20;2.00;;;;;;;24.69;63.52;97319.56;5086261;28;20219;-33
2022/09/07 04:58:45;;;;;;;1.93;1.83;;;;;;;24.73;63.44;97335.03;5086316;28;20276;-32
2022/09/07 05:01:13;;;;;;;2.17;1.97;;;;;;;24.73;63.41;97345.31;5083690;28;20231;-32
2022/09/07 05:03:40;;;;;;;2.10;2.00;;;;;;;24.75;63.13;97353.06;5088148;28;20268;-32
2022/09/07 05:06:07;;;;;;;1.80;1.70;;;;;;;24.74;63.35;97354.75;5087372;28;20771;-32
2022/09/07 05:08:37;;;;;;;2.17;2.03;;;;;;;24.73;63.40;97359.88;5086208;28;20203;-32
2022/09/07 05:11:04;;;;;;;2.30;2.20;;;;;;;24.74;63.33;97365.03;5087168;28;20203;-32
2022/09/07 05:13:31;;;;;;;2.07;1.97;;;;;;;24.72;62.88;97360.72;5083782;28;20199;-32
2022/09/07 05:15:58;;;;;;;2.27;2.10;;;;;;;24.74;62.99;97367.59;5083547;28;20278;-33
2022/09/07 05:18:25;;;;;;;2.27;2.07;;;;;;;24.75;63.43;97368.47;5084563;28;20204;-32
2022/09/07 05:20:52;;;;;;;1.77;1.67;;;;;;;24.71;62.83;97356.41;5084695;28;20215;-32
2022/09/07 05:23:18;;;;;;;2.23;2.03;;;;;;;24.75;63.25;97365.91;5083394;28;20253;-32
2022/09/07 05:25:45;;;;;;;2.10;2.00;;;;;;;24.77;63.44;97374.47;5086731;28;20223;-32
2022/09/07 05:28:12;;;;;;;2.43;2.23;;;;;;;24.73;63.32;97365.00;5085103;28;20207;-32
2022/09/07 05:30:45;;;;;;;2.27;2.07;;;;;;;24.74;63.42;97379.56;5087737;28;20263;-32
2022/09/07 05:33:32;;;;;;;2.50;2.30;;;;;;;24.68;63.13;97364.94;5094191;28;20661;-32
2022/09/07 05:36:19;;;;;;;2.43;2.23;;;;;;;24.75;63.01;97389.03;5084645;28;20699;-32
2022/09/07 05:38:46;;;;;;;2.60;2.40;;;;;;;24.71;62.99;97380.41;5092877;28;20234;-32
2022/09/07 05:41:18;;;;;;;3.80;2.53;;;;;;;24.75;63.52;97397.59;5090038;28;20268;-32
2022/09/07 05:43:44;;;;;;;2.10;2.00;;;;;;;24.75;62.94;97402.72;5087719;28;20249;-32
2022/09/07 05:46:31;;;;;;;4.47;2.40;;;;;;;24.77;63.43;97400.19;5091108;28;20270;-32
2022/09/07 05:48:59;;;;;;;2.70;2.50;;;;;;;24.77;63.78;97400.19;5092774;28;20563;-32
2022/09/07 05:51:26;;;;;;;4.23;3.03;;;;;;;24.77;63.48;97405.31;5093205;28;20654;-32
2022/09/07 05:53:52;;;;;;;2.90;2.60;;;;;;;24.74;63.47;97406.16;5087072;28;20204;-32
2022/09/07 05:56:19;;;;;;;3.00;2.70;;;;;;;24.77;63.41;97419.06;5086727;28;20216;-32
2022/09/07 05:58:48;;;;;;;3.13;2.70;;;;;;;24.76;63.46;97409.63;5092995;28;20196;-32
2022/09/07 06:01:15;;;;;;;3.40;3.10;;;;;;;24.77;63.70;97408.78;5085323;28;20220;-32
2022/09/07 06:03:43;;;;;;;4.07;3.03;;;;;;;24.73;63.41;97399.28;5090940;28;20200;-32
2022/09/07 06:06:11;;;;;;;4.13;2.90;;;;;;;24.77;63.95;97411.34;5090370;28;20268;-32
2022/09/07 06:08:39;;;;;;;5.33;3.63;;;;;;;24.75;63.92;97407.88;5089225;28;20246;-32
2022/09/07 06:11:11;;;;;;;4.53;3.40;;;;;;;24.77;63.95;97421.63;5078639;28;20279;-32
2022/09/07 06:13:38;;;;;;;6.03;4.63;;;;;;;24.75;65.26;97419.88;5093866;28;20235;-32
2022/09/07 06:16:06;;;;;;;9.27;4.67;;;;;;;24.78;65.78;97431.06;5085771;28;20650;-32
2022/09/07 06:18:34;;;;;;;12.53;5.27;;;;;;;24.76;66.09;97424.16;5081892;28;20684;-32
2022/09/07 06:21:04;;;;;;;15.03;5.67;;;;;;;24.78;66.61;97428.47;5083261;28;20664;-32
2022/09/07 06:23:31;;;;;;;18.97;6.37;;;;;;;24.75;66.26;97432.72;5091599;28;20238;-32
2022/09/07 06:25:58;;;;;;;16.40;6.53;;;;;;;24.73;66.93;97417.28;5096733;22;20311;-24
2022/09/07 06:28:32;;;;;;;23.23;6.90;;;;;;;24.79;66.79;97421.66;5076456;28;20226;-23
2022/09/07 06:30:59;;;;;;;20.47;6.40;;;;;;;24.71;67.38;97403.53;5075357;28;20223;-24
2022/09/07 06:33:26;;;;;;;14.97;6.07;;;;;;;24.78;67.68;97418.19;5077687;28;20381;-23
2022/09/07 06:35:56;;;;;;;15.97;7.00;;;;;;;24.78;68.07;97420.78;5074393;28;20254;-25
2022/09/07 06:38:24;;;;;;;15.27;6.77;;;;;;;24.78;68.30;97422.50;5075496;28;20265;-26
2022/09/07 06:41:02;;;;;;;14.87;6.70;;;;;;;24.77;68.94;97413.91;5072314;28;20210;-23
2022/09/07 06:43:49;;;;;;;13.97;7.30;;;;;;;24.77;68.82;97411.34;5080205;28;20198;-24
2022/09/07 06:46:16;;;;;;;16.70;6.70;;;;;;;24.78;69.38;97419.94;5087617;28;20310;-24
2022/09/07 06:49:02;;;;;;;11.50;6.07;;;;;;;24.78;68.23;97427.63;5077076;28;20542;-23
2022/09/07 06:51:30;;;;;;;12.13;6.17;;;;;;;24.77;67.84;97426.75;5083397;28;20232;-24
2022/09/07 06:53:57;;;;;;;10.53;5.33;;;;;;;24.74;66.88;97419.00;5088078;28;20206;-24
2022/09/07 06:56:44;;;;;;;8.40;4.93;;;;;;;24.76;66.20;97417.34;5082959;28;20216;-24
2022/09/07 06:59:10;;;;;;;9.63;5.00;;;;;;;24.76;66.09;97424.16;5077696;28;20227;-23
2022/09/07 07:01:37;;;;;;;8.43;4.97;;;;;;;24.75;66.10;97422.44;5074839;28;20278;-23
2022/09/07 07:04:03;;;;;;;9.80;4.97;;;;;;;24.76;65.82;97424.16;5078587;28;20227;-22
2022/09/07 07:06:34;;;;;;;10.10;4.97;;;;;;;24.65;65.71;97400.88;5071451;28;20647;-24
2022/09/07 07:09:00;;;;;;;6.77;5.00;;;;;;;24.75;66.01;97420.72;5072960;28;20247;-24
2022/09/07 07:11:27;;;;;;;12.00;5.37;;;;;;;24.75;66.02;97422.44;5077256;28;20287;-24
2022/09/07 07:13:54;;;;;;;9.27;4.70;;;;;;;24.75;65.94;97409.59;5082715;28;20216;-23
2022/09/07 07:16:20;;;;;;;5.90;4.30;;;;;;;24.76;65.93;97416.47;5083206;28;20297;-24
2022/09/07 07:18:51;;;;;;;6.33;4.77;;;;;;;24.76;65.77;97419.03;5083497;28;20622;-24
2022/09/07 07:21:17;;;;;;;8.43;4.50;;;;;;;24.77;65.52;97415.59;5076798;28;20246;-24
2022/09/07 07:23:45;;;;;;;8.97;4.90;;;;;;;24.77;65.96;97423.31;5077682;28;20288;-23
2022/09/07 07:26:16;;;;;;;6.10;4.67;;;;;;;24.76;66.06;97417.34;5059001;28;20268;-24
2022/09/07 07:28:48;;;;;;;11.20;4.97;;;;;;;24.78;65.41;97419.94;5079061;28;20247;-23
2022/09/07 07:31:32;;;;;;;9.03;4.73;;;;;;;24.78;65.60;97422.50;5083295;28;20729;-24
2022/09/07 07:33:58;;;;;;;9.50;4.97;;;;;;;24.77;65.67;97419.06;5086311;28;20195;-24
2022/09/07 07:36:25;;;;;;;8.23;4.70;;;;;;;24.78;65.56;97420.78;5078943;28;20216;-23
2022/09/07 07:38:53;;;;;;;7.43;4.60;;;;;;;24.72;65.93;97405.25;5077817;28;20202;-24
2022/09/07 07:41:26;;;;;;;6.13;4.40;;;;;;;24.66;65.26;97397.47;5078851;28;20220;-23
2022/09/07 07:44:12;;;;;;;6.27;4.40;;;;;;;24.79;65.55;97412.25;5078844;28;20662;-25
2022/09/07 07:46:39;;;;;;;5.80;4.47;;;;;;;24.78;65.76;97410.50;5089235;28;20230;-24
2022/09/07 07:49:06;;;;;;;8.43;4.43;;;;;;;24.80;65.61;97410.50;5089825;28;20231;-24
2022/09/07 07:51:32;;;;;;;10.77;4.93;;;;;;;24.79;66.11;97413.94;5087401;28;20679;-24
2022/09/07 07:54:19;;;;;;;8.73;4.73;;;;;;;24.80;65.77;97413.97;5084217;28;20689;-24
2022/09/07 07:56:45;;;;;;;11.10;5.10;;;;;;;24.74;65.56;97403.59;5086094;28;20231;-23
2022/09/07 07:59:12;;;;;;;7.63;4.73;;;;;;;24.81;65.99;97417.41;5089495;28;20256;-25
2022/09/07 08:01:42;;;;;;;12.63;5.47;;;;;;;24.81;66.29;97412.25;5088716;28;20220;-23
2022/09/07 08:04:09;;;;;;;10.23;4.97;;;;;;;24.82;65.76;97403.69;5088943;28;20199;-24
2022/09/07 08:06:36;;;;;;;10.10;5.37;;;;;;;24.82;66.01;97408.84;5089792;28;20242;-24
2022/09/07 08:09:03;;;;;;;13.40;5.37;;;;;;;24.83;66.41;97415.69;5086428;28;20199;-24
2022/09/07 08:11:30;;;;;;;12.67;5.73;;;;;;;24.83;66.47;97415.69;5090767;28;20203;-24
2022/09/07 08:13:59;;;;;;;12.27;5.30;;;;;;;24.83;66.41;97414.00;5089532;28;20607;-24
2022/09/07 08:16:25;;;;;;;17.10;5.63;;;;;;;24.84;66.40;97407.16;5075738;28;20247;-24
2022/09/07 08:18:52;;;;;;;13.77;5.47;;;;;;;24.84;66.40;97402.88;5086414;28;20602;-24
2022/09/07 08:21:19;;;;;;;14.97;5.60;;;;;;;24.84;66.83;97405.44;5086326;28;20204;-24
2022/09/07 08:23:45;;;;;;;13.87;5.40;;;;;;;24.86;67.23;97400.31;5086253;28;20200;-23
2022/09/07 08:26:12;;;;;;;17.10;5.47;;;;;;;24.86;67.23;97410.59;5075326;28;20228;-24
2022/09/07 08:28:39;;;;;;;23.03;5.73;;;;;;;24.86;67.00;97405.47;5084869;28;20199;-23
2022/09/07 08:31:07;;;;;;;12.83;5.77;;;;;;;24.85;67.26;97412.31;5089643;28;20200;-25
2022/09/07 08:33:37;;;;;;;14.83;4.80;;;;;;;24.80;67.16;97395.97;5089678;28;20192;-24
2022/09/07 08:36:15;;;;;;;8.83;4.63;;;;;;;24.86;67.03;97414.03;5086628;28;20220;-24
2022/09/07 08:38:42;;;;;;;14.03;4.70;;;;;;;24.84;67.04;97410.56;5078859;28;20200;-24
2022/09/07 08:41:26;;;;;;;11.07;5.40;;;;;;;24.86;67.17;97414.03;5078246;28;20200;-23
2022/09/07 08:44:01;;;;;;;14.33;5.03;;;;;;;24.75;67.03;97387.31;5083173;28;20218;-24
2022/09/07 08:46:41;;;;;;;10.40;4.30;;;;;;;24.86;67.31;97406.34;5060266;28;20219;-23
2022/09/07 08:49:14;;;;;;;9.40;4.50;;;;;;;24.75;67.55;97395.03;5080185;28;20729;-23
2022/09/07 08:51:52;;;;;;;8.63;4.70;;;;;;;24.86;67.79;97408.91;5070826;28;20192;-23
2022/09/07 08:54:19;;;;;;;8.10;4.30;;;;;;;24.85;67.93;97409.75;5086640;28;20203;-23
2022/09/07 08:56:48;;;;;;;9.30;4.10;;;;;;;24.86;67.33;97413.16;5073676;28;20224;-23
2022/09/07 08:59:50;;;;;;;7.67;3.83;;;;;;;24.67;67.46;97382.91;5086683;28;20203;-24
2022/09/07 09:02:17;;;;;;;8.73;4.13;;;;;;;24.86;67.87;97410.59;5087411;28;20248;-22
2022/09/07 09:05:04;;;;;;;7.53;4.30;;;;;;;24.61;67.70;97354.53;5083704;28;20197;-23
2022/09/07 09:07:52;;;;;;;7.77;3.90;;;;;;;24.85;67.80;97403.75;5073163;28;20580;-23
2022/09/07 09:10:26;;;;;;;6.03;3.50;;;;;;;24.86;69.21;97424.31;5093004;28;20223;-23
2022/09/07 09:12:58;;;;;;;8.83;3.73;;;;;;;24.85;68.40;97407.19;5091093;28;20669;-24
2022/09/07 09:15:32;;;;;;;5.27;3.60;;;;;;;24.64;67.82;97368.28;5086876;28;20217;-24
2022/09/07 09:18:21;;;;;;;6.80;3.47;;;;;;;24.87;68.92;97399.50;5082625;28;20207;-24
2022/09/07 09:20:54;;;;;;;4.97;3.40;;;;;;;24.87;68.51;97399.50;5087365;28;20199;-24
2022/09/07 09:23:24;;;;;;;7.63;3.67;;;;;;;24.88;67.94;97394.38;5086664;28;20220;-24
2022/09/07 09:25:54;;;;;;;7.13;3.77;;;;;;;24.88;68.21;97396.06;5081818;28;20644;-24
2022/09/07 09:28:21;;;;;;;7.07;3.97;;;;;;;24.88;68.95;97402.09;5081261;28;20286;-23
2022/09/07 09:30:47;;;;;;;7.73;3.50;;;;;;;24.87;68.38;97399.50;5089696;28;20578;-24
2022/09/07 09:33:18;;;;;;;8.77;3.90;;;;;;;24.90;71.97;97408.09;5092744;28;20203;-24
2022/09/07 09:35:48;;;;;;;9.83;3.83;;;;;;;24.89;69.48;97402.94;5090111;28;20216;-24
2022/09/07 09:38:34;;;;;;;4.17;3.20;;;;;;;24.89;68.93;97408.06;5083073;28;20196;-24
2022/09/07 09:41:08;;;;;;;5.00;3.50;;;;;;;24.91;68.28;97416.69;5085768;28;20679;-23
2022/09/07 09:43:49;;;;;;;5.27;3.33;;;;;;;23.57;68.51;97180.88;5074473;28;20215;-24
2022/09/07 09:46:33;;;;;;;6.80;3.50;;;;;;;24.91;68.21;97409.84;5082799;28;20223;-23
2022/09/07 09:49:02;;;;;;;3.43;3.13;;;;;;;24.74;67.88;97377.88;5078002;28;20199;-23
2022/09/07 09:51:31;;;;;;;6.53;3.27;;;;;;;24.92;68.27;97418.41;5059556;28;20196;-24
2022/09/07 09:54:38;;;;;;;4.77;3.40;;;;;;;24.68;67.99;97369.22;5084511;28;20207;-24
2022/09/07 09:57:05;;;;;;;5.27;3.23;;;;;;;24.85;68.44;97394.34;5078134;28;20215;-24
2022/09/07 09:59:32;;;;;;;4.90;3.10;;;;;;;24.89;68.07;97398.66;5080780;28;20203;-25
2022/09/07 10:02:27;;;;;;;5.03;3.60;;;;;;;24.92;68.01;97400.41;5086432;28;20216;-25
2022/09/07 10:05:41;;;;;;;5.80;3.23;;;;;;;24.92;68.07;97400.41;5077443;28;20562;-24
2022/09/07 10:08:25;;;;;;;4.80;3.20;;;;;;;24.87;67.88;97382.34;5079191;28;20579;-24
2022/09/07 10:10:54;;;;;;;6.13;3.60;;;;;;;24.92;69.94;97390.13;5075768;28;20257;-24
2022/09/07 10:13:52;;;;;;;4.70;3.33;;;;;;;24.91;68.15;97394.41;5070095;28;20582;-24
2022/09/07 10:16:18;;;;;;;4.70;3.13;;;;;;;24.92;68.06;97397.84;5064785;28;20230;-24
2022/09/07 10:18:57;;;;;;;4.00;3.23;;;;;;;24.90;67.87;97386.69;5055688;28;20655;-23
2022/09/07 10:21:28;;;;;;;6.67;3.40;;;;;;;24.92;67.93;97396.13;5074179;28;20223;-24
2022/09/07 10:24:04;;;;;;;8.00;3.00;;;;;;;24.92;68.30;97385.84;5076679;28;20810;-29
2022/09/07 10:26:32;;;;;;;7.20;3.50;;;;;;;24.81;68.35;97364.25;5074851;28;20230;-23
2022/09/07 10:29:12;;;;;;;5.37;3.57;;;;;;;24.95;68.41;97390.16;5080030;28;20585;-24
2022/09/07 10:31:45;;;;;;;7.13;3.43;;;;;;;24.94;68.29;97376.47;5077838;28;20199;-24
2022/09/07 10:34:30;;;;;;;5.57;3.00;;;;;;;24.89;68.11;97369.50;5074862;28;20682;-23
2022/09/07 10:36:57;;;;;;;5.93;3.43;;;;;;;24.93;69.13;97379.84;5074730;28;20275;-24
2022/09/07 10:39:34;;;;;;;5.90;3.30;;;;;;;23.57;69.77;97144.97;5075542;28;20211;-23
2022/09/07 10:42:07;;;;;;;5.40;3.70;;;;;;;24.95;69.51;97367.03;5074110;28;20673;-23
2022/09/07 10:44:58;;;;;;;6.13;3.27;;;;;;;24.95;68.61;97374.72;5074109;28;20308;-24
2022/09/07 10:47:46;;;;;;;5.57;3.30;;;;;;;24.95;68.84;97364.44;5072791;28;20585;-23
2022/09/07 10:50:22;;;;;;;6.40;3.23;;;;;;;24.77;68.73;97335.94;5072154;28;20204;-24
2022/09/07 10:53:03;;;;;;;10.70;3.13;;;;;;;24.96;68.67;97363.63;5075134;28;20199;-25
2022/09/07 10:56:02;;;;;;;7.33;3.17;;;;;;;24.90;68.51;97354.09;5074554;28;20228;-23
2022/09/07 10:58:41;;;;;;;7.07;3.00;;;;;;;24.95;68.76;97355.03;5071263;28;20218;-24
2022/09/07 11:01:49;;;;;;;6.20;3.47;;;;;;;24.77;68.42;97316.25;5075847;28;20681;-25
2022/09/07 11:04:25;;;;;;;8.87;3.23;;;;;;;24.96;68.58;97340.50;5074509;28;20214;-24
2022/09/07 11:06:56;;;;;;;4.27;3.10;;;;;;;24.96;67.97;97330.19;5074076;28;20582;-25
2022/09/07 11:09:29;;;;;;;5.73;3.13;;;;;;;24.96;68.01;97323.34;5055770;28;20693;-23
2022/09/07 11:12:04;;;;;;;5.23;3.13;;;;;;;24.88;68.23;97314.69;5077725;28;20214;-23
2022/09/07 11:14:38;;;;;;;5.53;3.23;;;;;;;24.95;67.99;97321.63;5054161;28;20211;-23
2022/09/07 11:17:16;;;;;;;7.23;3.40;;;;;;;24.94;68.32;97319.03;5056928;28;20219;-25
2022/09/07 11:19:51;;;;;;;7.27;3.33;;;;;;;24.95;67.98;97315.59;5058394;28;20207;-24
2022/09/07 11:22:22;;;;;;;4.80;2.80;;;;;;;24.89;68.53;97308.69;5057740;28;20215;-23
2022/09/07 11:24:57;;;;;;;6.10;3.23;;;;;;;24.84;68.23;97301.78;5061184;28;20210;-24
2022/09/07 11:28:07;;;;;;;4.30;2.83;;;;;;;24.94;68.25;97311.31;5074831;28;20641;-24
2022/09/07 11:30:42;;;;;;;6.23;3.17;;;;;;;24.87;68.19;97299.25;5070164;28;20211;-24
2022/09/07 11:33:20;;;;;;;5.57;3.03;;;;;;;24.93;68.30;97301.88;5078768;28;20568;-24
2022/09/07 11:35:51;;;;;;;3.30;3.00;;;;;;;24.92;68.05;97300.13;5057423;28;20227;-25
2022/09/07 11:38:26;;;;;;;5.47;3.27;;;;;;;24.92;68.24;97300.13;5076385;28;20208;-23
2022/09/07 11:41:19;;;;;;;6.57;3.00;;;;;;;24.91;68.33;97303.56;5085032;28;20202;-24
2022/09/07 11:43:56;;;;;;;6.27;3.43;;;;;;;24.91;68.39;97309.56;5076658;28;20314;-23
2022/09/07 11:46:31;;;;;;;9.10;3.40;;;;;;;24.91;68.48;97299.28;5076686;28;20694;-24
2022/09/07 11:48:58;;;;;;;5.87;3.00;;;;;;;24.72;68.26;97269.03;5078854;28;20738;-24
2022/09/07 11:51:41;;;;;;;6.23;3.43;;;;;;;24.90;68.37;97301.84;5070950;28;20207;-24
2022/09/07 11:54:47;;;;;;;4.40;3.13;;;;;;;24.90;68.27;97301.84;5074090;28;20196;-24
2022/09/07 11:57:13;;;;;;;3.60;2.80;;;;;;;24.87;68.50;97292.38;5074588;28;20609;-24
2022/09/07 11:59:42;;;;;;;3.97;2.90;;;;;;;24.90;68.35;97291.56;5076792;28;20211;-24
2022/09/07 12:02:21;;;;;;;5.53;3.00;;;;;;;24.89;68.45;97287.25;5077793;28;20203;-24
2022/09/07 12:05:20;;;;;;;4.90;2.77;;;;;;;24.89;68.45;97282.97;5077001;28;20560;-24
2022/09/07 12:08:17;;;;;;;5.03;3.20;;;;;;;24.89;68.18;97284.66;5080789;28;20669;-23
2022/09/07 12:11:07;;;;;;;5.83;3.20;;;;;;;24.88;68.23;97286.41;5035249;28;20207;-27
2022/09/07 12:13:52;;;;;;;5.50;2.77;;;;;;;24.89;68.05;97288.13;5043996;28;20290;-23
2022/09/07 12:16:27;;;;;;;4.00;3.00;;;;;;;24.85;68.30;97281.22;5079602;28;20254;-24
2022/09/07 12:19:16;;;;;;;4.03;2.90;;;;;;;24.89;68.45;97280.41;5076290;28;20658;-24
2022/09/07 12:21:52;;;;;;;6.80;2.97;;;;;;;24.89;68.28;97272.69;5077438;28;20208;-24
2022/09/07 12:24:45;;;;;;;5.10;2.87;;;;;;;24.89;68.62;97269.25;5077218;28;20223;-24
2022/09/07 12:27:18;;;;;;;4.43;2.80;;;;;;;24.90;68.33;97271.00;5084777;22;20231;-33
2022/09/07 12:30:11;;;;;;;3.97;3.03;;;;;;;24.90;70.25;97265.84;5076733;28;20196;-32
2022/09/07 12:32:46;;;;;;;4.70;2.73;;;;;;;24.90;68.65;97271.00;5053415;28;20210;-32
2022/09/07 12:35:26;;;;;;;4.37;2.77;;;;;;;24.90;69.07;97271.84;5077422;28;20306;-32
2022/09/07 12:37:53;;;;;;;6.50;2.93;;;;;;;24.90;68.83;97263.28;5065700;28;20223;-32
2022/09/07 12:40:47;;;;;;;4.13;2.77;;;;;;;24.90;68.38;97269.25;5062448;28;20212;-32
2022/09/07 12:43:13;;;;;;;4.70;2.87;;;;;;;24.91;69.12;97275.28;5057618;28;20220;-32
2022/09/07 12:45:40;;;;;;;5.20;2.97;;;;;;;24.91;69.20;97265.00;5070446;28;20219;-32
2022/09/07 12:48:15;;;;;;;5.97;3.10;;;;;;;24.90;68.62;97256.41;5062237;28;20217;-33
2022/09/07 12:50:55;;;;;;;6.30;2.60;;;;;;;24.89;68.83;97251.25;5070132;28;20204;-32
2022/09/07 12:53:47;;;;;;;3.97;3.07;;;;;;;24.91;68.56;97245.31;5065052;28;20283;-33
2022/09/07 12:56:22;;;;;;;3.70;2.80;;;;;;;24.92;69.07;97246.16;5065057;28;20220;-33
2022/09/07 12:59:04;;;;;;;5.20;3.37;;;;;;;24.91;70.06;97240.16;5054774;28;20644;-32
2022/09/07 13:02:08;;;;;;;5.73;2.63;;;;;;;24.93;69.59;97248.72;5068104;28;20611;-32
2022/09/07 13:04:48;;;;;;;7.30;3.07;;;;;;;24.94;69.38;97249.59;5071337;28;20208;-32
2022/09/07 13:07:48;;;;;;;6.17;3.80;;;;;;;24.96;69.83;97242.78;5070707;28;20741;-33
2022/09/07 13:10:35;;;;;;;5.87;3.20;;;;;;;24.95;69.48;97229.06;5071302;28;20204;-32
2022/09/07 13:13:03;;;;;;;4.60;3.20;;;;;;;24.95;70.26;97228.19;5068634;28;20218;-32
2022/09/07 13:15:50;;;;;;;4.80;3.13;;;;;;;24.96;70.99;97224.78;5066715;28;20203;-32
2022/09/07 13:18:28;;;;;;;4.50;3.00;;;;;;;24.97;70.08;97218.78;5069953;28;20581;-32
2022/09/07 13:21:07;;;;;;;4.03;2.90;;;;;;;24.96;70.02;97223.06;5062650;28;20659;-32